sensor_id;sensor_type;location;lat;lon;timestamp;P1;durP1;ratioP1;P2;durP2;ratioP2
84713;SDS011;74938;42.658;23.248;2023-12-22T00:01:51;26.85;;;10.85;;
84713;SDS011;74938;42.658;23.248;2023-12-22T00:04:17;24.88;;;10.65;;
84713;SDS011;74938;42.658;23.248;2023-12-22T00:06:42;23.55;;;10.73;;
84713;SDS011;74938;42.658;23.248;2023-12-22T00:09:07;20.67;;;11.10;;
84713;SDS011;74938;42.658;23.248;2023-12-22T00:11:33;23.15;;;11.90;;
84713;SDS011;74938;42.658;23.248;2023-12-22T00:13:58;37.67;;;18.10;;
84713;SDS011;74938;42.658;23.248;2023-12-22T00:16:24;24.50;;;12.60;;
84713;SDS011;74938;42.658;23.248;2023-12-22T00:18:49;28.63;;;12.65;;
84713;SDS011;74938;42.658;23.248;2023-12-22T00:21:14;25.20;;;11.88;;
84713;SDS011;74938;42.658;23.248;2023-12-22T00:23:40;24.40;;;12.90;;
84713;SDS011;74938;42.658;23.248;2023-12-22T00:26:05;25.92;;;13.20;;
84713;SDS011;74938;42.658;23.248;2023-12-22T00:28:30;27.40;;;13.32;;
84713;SDS011;74938;42.658;23.248;2023-12-22T00:30:59;22.25;;;12.05;;
84713;SDS011;74938;42.658;23.248;2023-12-22T00:33:24;27.52;;;12.45;;
84713;SDS011;74938;42.658;23.248;2023-12-22T00:35:50;23.58;;;11.10;;
84713;SDS011;74938;42.658;23.248;2023-12-22T00:38:16;28.13;;;12.10;;
84713;SDS011;74938;42.658;23.248;2023-12-22T00:40:41;29.02;;;13.60;;
84713;SDS011;74938;42.658;23.248;2023-12-22T00:43:07;30.35;;;14.60;;
84713;SDS011;74938;42.658;23.248;2023-12-22T00:45:32;23.25;;;13.73;;
84713;SDS011;74938;42.658;23.248;2023-12-22T00:47:57;40.30;;;19.13;;
84713;SDS011;74938;42.658;23.248;2023-12-22T00:50:23;29.83;;;15.85;;
84713;SDS011;74938;42.658;23.248;2023-12-22T00:52:48;34.88;;;17.00;;
84713;SDS011;74938;42.658;23.248;2023-12-22T00:55:14;33.90;;;17.35;;
84713;SDS011;74938;42.658;23.248;2023-12-22T00:57:39;29.30;;;15.80;;
84713;SDS011;74938;42.658;23.248;2023-12-22T01:00:04;35.40;;;13.95;;
84713;SDS011;74938;42.658;23.248;2023-12-22T01:04:59;22.08;;;11.15;;
84713;SDS011;74938;42.658;23.248;2023-12-22T01:07:24;24.92;;;13.27;;
84713;SDS011;74938;42.658;23.248;2023-12-22T01:09:50;26.13;;;13.07;;
84713;SDS011;74938;42.658;23.248;2023-12-22T01:12:16;32.03;;;11.90;;
84713;SDS011;74938;42.658;23.248;2023-12-22T01:14:41;24.40;;;10.90;;
84713;SDS011;74938;42.658;23.248;2023-12-22T01:17:10;23.38;;;12.30;;
84713;SDS011;74938;42.658;23.248;2023-12-22T01:19:35;25.63;;;12.02;;
84713;SDS011;74938;42.658;23.248;2023-12-22T01:22:01;27.77;;;12.20;;
84713;SDS011;74938;42.658;23.248;2023-12-22T01:24:26;25.77;;;12.25;;
84713;SDS011;74938;42.658;23.248;2023-12-22T01:26:51;24.10;;;11.50;;
84713;SDS011;74938;42.658;23.248;2023-12-22T01:29:17;25.90;;;12.02;;
84713;SDS011;74938;42.658;23.248;2023-12-22T01:31:42;29.40;;;14.77;;
84713;SDS011;74938;42.658;23.248;2023-12-22T01:34:08;29.63;;;14.93;;
84713;SDS011;74938;42.658;23.248;2023-12-22T01:36:34;26.35;;;13.02;;
84713;SDS011;74938;42.658;23.248;2023-12-22T01:39:00;24.33;;;13.57;;
84713;SDS011;74938;42.658;23.248;2023-12-22T01:41:25;23.15;;;13.02;;
84713;SDS011;74938;42.658;23.248;2023-12-22T01:43:51;22.48;;;12.10;;
84713;SDS011;74938;42.658;23.248;2023-12-22T01:46:16;20.23;;;10.50;;
84713;SDS011;74938;42.658;23.248;2023-12-22T01:48:42;25.98;;;10.55;;
84713;SDS011;74938;42.658;23.248;2023-12-22T01:51:08;25.45;;;11.32;;
84713;SDS011;74938;42.658;23.248;2023-12-22T01:53:34;22.15;;;10.02;;
84713;SDS011;74938;42.658;23.248;2023-12-22T01:56:00;27.70;;;12.75;;
84713;SDS011;74938;42.658;23.248;2023-12-22T01:58:27;21.50;;;9.27;;
84713;SDS011;74938;42.658;23.248;2023-12-22T02:00:54;27.73;;;12.23;;
84713;SDS011;74938;42.658;23.248;2023-12-22T02:03:20;33.78;;;16.33;;
84713;SDS011;74938;42.658;23.248;2023-12-22T02:05:46;27.88;;;13.38;;
84713;SDS011;74938;42.658;23.248;2023-12-22T02:08:11;29.23;;;14.02;;
84713;SDS011;74938;42.658;23.248;2023-12-22T02:10:37;26.88;;;13.48;;
84713;SDS011;74938;42.658;23.248;2023-12-22T02:13:03;27.70;;;13.27;;
84713;SDS011;74938;42.658;23.248;2023-12-22T02:15:30;36.88;;;16.52;;
84713;SDS011;74938;42.658;23.248;2023-12-22T02:18:03;26.23;;;13.13;;
84713;SDS011;74938;42.658;23.248;2023-12-22T02:20:37;27.23;;;12.57;;
84713;SDS011;74938;42.658;23.248;2023-12-22T02:23:03;20.88;;;11.10;;
84713;SDS011;74938;42.658;23.248;2023-12-22T02:25:29;20.15;;;10.73;;
84713;SDS011;74938;42.658;23.248;2023-12-22T02:27:57;21.17;;;10.23;;
84713;SDS011;74938;42.658;23.248;2023-12-22T02:32:59;29.67;;;15.07;;
84713;SDS011;74938;42.658;23.248;2023-12-22T02:35:26;21.98;;;11.15;;
84713;SDS011;74938;42.658;23.248;2023-12-22T02:37:54;22.05;;;11.02;;
84713;SDS011;74938;42.658;23.248;2023-12-22T02:40:22;21.00;;;12.07;;
84713;SDS011;74938;42.658;23.248;2023-12-22T02:42:48;24.90;;;11.50;;
84713;SDS011;74938;42.658;23.248;2023-12-22T02:45:15;19.65;;;10.05;;
84713;SDS011;74938;42.658;23.248;2023-12-22T02:47:42;18.30;;;9.30;;
84713;SDS011;74938;42.658;23.248;2023-12-22T02:50:08;24.27;;;11.18;;
84713;SDS011;74938;42.658;23.248;2023-12-22T02:52:34;18.77;;;9.45;;
84713;SDS011;74938;42.658;23.248;2023-12-22T02:55:00;17.63;;;9.65;;
84713;SDS011;74938;42.658;23.248;2023-12-22T02:57:26;22.75;;;10.48;;
84713;SDS011;74938;42.658;23.248;2023-12-22T02:59:51;22.05;;;9.25;;
84713;SDS011;74938;42.658;23.248;2023-12-22T03:02:17;22.63;;;10.10;;
84713;SDS011;74938;42.658;23.248;2023-12-22T03:04:42;67.28;;;25.38;;
84713;SDS011;74938;42.658;23.248;2023-12-22T03:07:08;30.10;;;13.63;;
84713;SDS011;74938;42.658;23.248;2023-12-22T03:09:33;29.25;;;14.85;;
84713;SDS011;74938;42.658;23.248;2023-12-22T03:11:59;18.65;;;10.43;;
84713;SDS011;74938;42.658;23.248;2023-12-22T03:14:30;20.85;;;10.05;;
84713;SDS011;74938;42.658;23.248;2023-12-22T03:16:58;17.92;;;9.10;;
84713;SDS011;74938;42.658;23.248;2023-12-22T03:19:23;22.35;;;10.65;;
84713;SDS011;74938;42.658;23.248;2023-12-22T03:21:49;24.90;;;10.15;;
84713;SDS011;74938;42.658;23.248;2023-12-22T03:24:14;19.77;;;10.00;;
84713;SDS011;74938;42.658;23.248;2023-12-22T03:26:40;24.08;;;10.45;;
84713;SDS011;74938;42.658;23.248;2023-12-22T03:29:05;19.50;;;9.45;;
84713;SDS011;74938;42.658;23.248;2023-12-22T03:31:30;24.27;;;10.93;;
84713;SDS011;74938;42.658;23.248;2023-12-22T03:33:56;28.52;;;10.88;;
84713;SDS011;74938;42.658;23.248;2023-12-22T03:36:21;22.63;;;10.63;;
84713;SDS011;74938;42.658;23.248;2023-12-22T03:38:47;26.15;;;10.88;;
84713;SDS011;74938;42.658;23.248;2023-12-22T03:41:12;21.35;;;10.43;;
84713;SDS011;74938;42.658;23.248;2023-12-22T03:43:38;25.38;;;11.93;;
84713;SDS011;74938;42.658;23.248;2023-12-22T03:46:03;24.38;;;11.30;;
84713;SDS011;74938;42.658;23.248;2023-12-22T03:48:28;22.00;;;11.52;;
84713;SDS011;74938;42.658;23.248;2023-12-22T03:50:54;22.38;;;11.88;;
84713;SDS011;74938;42.658;23.248;2023-12-22T03:53:19;22.17;;;12.07;;
84713;SDS011;74938;42.658;23.248;2023-12-22T03:55:45;23.70;;;11.40;;
84713;SDS011;74938;42.658;23.248;2023-12-22T03:58:10;23.05;;;12.50;;
84713;SDS011;74938;42.658;23.248;2023-12-22T04:00:35;20.92;;;11.48;;
84713;SDS011;74938;42.658;23.248;2023-12-22T04:03:01;20.17;;;10.68;;
84713;SDS011;74938;42.658;23.248;2023-12-22T04:05:27;24.25;;;11.57;;
84713;SDS011;74938;42.658;23.248;2023-12-22T04:07:52;19.90;;;10.32;;
84713;SDS011;74938;42.658;23.248;2023-12-22T04:10:18;19.63;;;11.05;;
84713;SDS011;74938;42.658;23.248;2023-12-22T04:12:44;22.52;;;11.07;;
84713;SDS011;74938;42.658;23.248;2023-12-22T04:15:09;26.00;;;12.00;;
84713;SDS011;74938;42.658;23.248;2023-12-22T04:17:35;31.17;;;15.18;;
84713;SDS011;74938;42.658;23.248;2023-12-22T04:20:00;28.70;;;14.75;;
84713;SDS011;74938;42.658;23.248;2023-12-22T04:22:26;29.70;;;14.70;;
84713;SDS011;74938;42.658;23.248;2023-12-22T04:24:51;29.23;;;15.07;;
84713;SDS011;74938;42.658;23.248;2023-12-22T04:27:17;24.88;;;12.45;;
84713;SDS011;74938;42.658;23.248;2023-12-22T04:29:42;29.40;;;14.60;;
84713;SDS011;74938;42.658;23.248;2023-12-22T04:32:08;24.10;;;10.88;;
84713;SDS011;74938;42.658;23.248;2023-12-22T04:34:34;25.80;;;12.90;;
84713;SDS011;74938;42.658;23.248;2023-12-22T04:36:59;24.33;;;12.68;;
84713;SDS011;74938;42.658;23.248;2023-12-22T04:39:25;27.45;;;14.07;;
84713;SDS011;74938;42.658;23.248;2023-12-22T04:41:50;29.40;;;14.23;;
84713;SDS011;74938;42.658;23.248;2023-12-22T04:44:15;25.63;;;12.82;;
84713;SDS011;74938;42.658;23.248;2023-12-22T04:46:41;25.60;;;12.82;;
84713;SDS011;74938;42.658;23.248;2023-12-22T04:49:06;26.40;;;12.57;;
84713;SDS011;74938;42.658;23.248;2023-12-22T04:51:31;21.67;;;11.00;;
84713;SDS011;74938;42.658;23.248;2023-12-22T04:53:57;32.50;;;14.93;;
84713;SDS011;74938;42.658;23.248;2023-12-22T04:56:22;22.92;;;12.20;;
84713;SDS011;74938;42.658;23.248;2023-12-22T04:58:47;22.30;;;11.45;;
84713;SDS011;74938;42.658;23.248;2023-12-22T05:01:13;21.75;;;10.43;;
84713;SDS011;74938;42.658;23.248;2023-12-22T05:03:38;23.25;;;12.00;;
84713;SDS011;74938;42.658;23.248;2023-12-22T05:06:03;23.35;;;12.00;;
84713;SDS011;74938;42.658;23.248;2023-12-22T05:08:29;24.63;;;11.35;;
84713;SDS011;74938;42.658;23.248;2023-12-22T05:10:54;22.50;;;10.50;;
84713;SDS011;74938;42.658;23.248;2023-12-22T05:13:20;24.67;;;10.40;;
84713;SDS011;74938;42.658;23.248;2023-12-22T05:15:45;22.83;;;11.02;;
84713;SDS011;74938;42.658;23.248;2023-12-22T05:18:10;25.33;;;12.02;;
84713;SDS011;74938;42.658;23.248;2023-12-22T05:20:36;23.73;;;12.25;;
84713;SDS011;74938;42.658;23.248;2023-12-22T05:23:01;21.95;;;11.93;;
84713;SDS011;74938;42.658;23.248;2023-12-22T05:25:27;28.58;;;12.13;;
84713;SDS011;74938;42.658;23.248;2023-12-22T05:27:54;24.98;;;10.80;;
84713;SDS011;74938;42.658;23.248;2023-12-22T05:30:19;26.85;;;12.70;;
84713;SDS011;74938;42.658;23.248;2023-12-22T05:32:44;18.77;;;9.77;;
84713;SDS011;74938;42.658;23.248;2023-12-22T05:35:10;6.30;;;3.45;;
84713;SDS011;74938;42.658;23.248;2023-12-22T05:37:35;4.55;;;2.30;;
84713;SDS011;74938;42.658;23.248;2023-12-22T05:40:01;2.33;;;1.50;;
84713;SDS011;74938;42.658;23.248;2023-12-22T05:42:27;2.25;;;1.25;;
84713;SDS011;74938;42.658;23.248;2023-12-22T05:44:52;2.95;;;1.50;;
84713;SDS011;74938;42.658;23.248;2023-12-22T05:47:18;2.80;;;1.40;;
84713;SDS011;74938;42.658;23.248;2023-12-22T05:49:43;2.65;;;1.40;;
84713;SDS011;74938;42.658;23.248;2023-12-22T05:52:09;2.50;;;1.60;;
84713;SDS011;74938;42.658;23.248;2023-12-22T05:54:34;9.23;;;4.55;;
84713;SDS011;74938;42.658;23.248;2023-12-22T05:57:00;4.65;;;2.72;;
84713;SDS011;74938;42.658;23.248;2023-12-22T05:59:26;4.25;;;2.10;;
84713;SDS011;74938;42.658;23.248;2023-12-22T06:01:55;3.58;;;1.65;;
84713;SDS011;74938;42.658;23.248;2023-12-22T06:04:21;5.80;;;2.58;;
84713;SDS011;74938;42.658;23.248;2023-12-22T06:06:46;5.97;;;3.13;;
84713;SDS011;74938;42.658;23.248;2023-12-22T06:09:11;10.25;;;5.40;;
84713;SDS011;74938;42.658;23.248;2023-12-22T06:11:38;14.50;;;7.90;;
84713;SDS011;74938;42.658;23.248;2023-12-22T06:14:04;20.00;;;9.85;;
84713;SDS011;74938;42.658;23.248;2023-12-22T06:16:30;17.77;;;10.43;;
84713;SDS011;74938;42.658;23.248;2023-12-22T06:18:56;14.40;;;8.18;;
84713;SDS011;74938;42.658;23.248;2023-12-22T06:21:21;16.33;;;9.57;;
84713;SDS011;74938;42.658;23.248;2023-12-22T06:23:47;20.98;;;7.85;;
84713;SDS011;74938;42.658;23.248;2023-12-22T06:26:12;14.95;;;7.88;;
84713;SDS011;74938;42.658;23.248;2023-12-22T06:28:38;17.95;;;8.93;;
84713;SDS011;74938;42.658;23.248;2023-12-22T06:31:05;18.58;;;8.57;;
84713;SDS011;74938;42.658;23.248;2023-12-22T06:33:43;19.25;;;8.38;;
84713;SDS011;74938;42.658;23.248;2023-12-22T06:36:17;10.02;;;3.72;;
84713;SDS011;74938;42.658;23.248;2023-12-22T06:38:51;17.33;;;9.48;;
84713;SDS011;74938;42.658;23.248;2023-12-22T06:41:21;17.58;;;8.52;;
84713;SDS011;74938;42.658;23.248;2023-12-22T06:43:48;33.45;;;12.77;;
84713;SDS011;74938;42.658;23.248;2023-12-22T06:48:47;17.30;;;9.75;;
84713;SDS011;74938;42.658;23.248;2023-12-22T06:51:17;27.38;;;12.88;;
84713;SDS011;74938;42.658;23.248;2023-12-22T06:53:49;25.90;;;12.48;;
84713;SDS011;74938;42.658;23.248;2023-12-22T06:56:19;28.70;;;13.18;;
84713;SDS011;74938;42.658;23.248;2023-12-22T06:58:45;27.88;;;11.77;;
84713;SDS011;74938;42.658;23.248;2023-12-22T07:01:17;21.48;;;12.57;;
84713;SDS011;74938;42.658;23.248;2023-12-22T07:03:44;17.08;;;8.88;;
84713;SDS011;74938;42.658;23.248;2023-12-22T07:06:10;15.10;;;7.70;;
84713;SDS011;74938;42.658;23.248;2023-12-22T07:08:35;18.48;;;8.65;;
84713;SDS011;74938;42.658;23.248;2023-12-22T07:11:01;17.10;;;9.93;;
84713;SDS011;74938;42.658;23.248;2023-12-22T07:13:26;19.60;;;10.85;;
84713;SDS011;74938;42.658;23.248;2023-12-22T07:15:51;19.27;;;9.20;;
84713;SDS011;74938;42.658;23.248;2023-12-22T07:18:17;21.30;;;10.48;;
84713;SDS011;74938;42.658;23.248;2023-12-22T07:20:42;22.00;;;10.25;;
84713;SDS011;74938;42.658;23.248;2023-12-22T07:23:09;17.40;;;8.43;;
84713;SDS011;74938;42.658;23.248;2023-12-22T07:25:36;17.80;;;9.82;;
84713;SDS011;74938;42.658;23.248;2023-12-22T07:28:03;19.40;;;8.82;;
84713;SDS011;74938;42.658;23.248;2023-12-22T07:30:29;17.05;;;8.77;;
84713;SDS011;74938;42.658;23.248;2023-12-22T07:32:54;64.57;;;25.38;;
84713;SDS011;74938;42.658;23.248;2023-12-22T07:35:20;21.38;;;10.27;;
84713;SDS011;74938;42.658;23.248;2023-12-22T07:37:45;15.68;;;8.18;;
84713;SDS011;74938;42.658;23.248;2023-12-22T07:40:11;18.92;;;10.07;;
84713;SDS011;74938;42.658;23.248;2023-12-22T07:42:36;16.55;;;8.68;;
84713;SDS011;74938;42.658;23.248;2023-12-22T07:45:03;49.50;;;24.75;;
84713;SDS011;74938;42.658;23.248;2023-12-22T07:47:29;60.38;;;26.60;;
84713;SDS011;74938;42.658;23.248;2023-12-22T07:49:55;46.97;;;24.20;;
84713;SDS011;74938;42.658;23.248;2023-12-22T07:52:20;36.85;;;19.10;;
84713;SDS011;74938;42.658;23.248;2023-12-22T07:54:45;21.13;;;10.98;;
84713;SDS011;74938;42.658;23.248;2023-12-22T07:57:12;22.75;;;10.50;;
84713;SDS011;74938;42.658;23.248;2023-12-22T07:59:37;20.35;;;11.45;;
84713;SDS011;74938;42.658;23.248;2023-12-22T08:02:03;21.30;;;10.27;;
84713;SDS011;74938;42.658;23.248;2023-12-22T08:04:28;15.95;;;7.05;;
84713;SDS011;74938;42.658;23.248;2023-12-22T08:06:54;10.43;;;5.10;;
84713;SDS011;74938;42.658;23.248;2023-12-22T08:09:19;21.23;;;10.90;;
84713;SDS011;74938;42.658;23.248;2023-12-22T08:11:45;31.48;;;14.13;;
84713;SDS011;74938;42.658;23.248;2023-12-22T08:14:12;44.28;;;19.05;;
84713;SDS011;74938;42.658;23.248;2023-12-22T08:16:37;38.83;;;17.58;;
84713;SDS011;74938;42.658;23.248;2023-12-22T08:19:02;28.42;;;14.32;;
84713;SDS011;74938;42.658;23.248;2023-12-22T08:21:28;39.50;;;17.30;;
84713;SDS011;74938;42.658;23.248;2023-12-22T08:23:53;38.88;;;18.15;;
84713;SDS011;74938;42.658;23.248;2023-12-22T08:26:19;64.95;;;24.30;;
84713;SDS011;74938;42.658;23.248;2023-12-22T08:28:44;24.13;;;11.57;;
84713;SDS011;74938;42.658;23.248;2023-12-22T08:31:10;19.45;;;9.05;;
84713;SDS011;74938;42.658;23.248;2023-12-22T08:33:37;18.58;;;8.65;;
84713;SDS011;74938;42.658;23.248;2023-12-22T08:36:05;27.08;;;12.25;;
84713;SDS011;74938;42.658;23.248;2023-12-22T08:38:31;30.17;;;14.55;;
84713;SDS011;74938;42.658;23.248;2023-12-22T08:40:57;26.00;;;10.90;;
84713;SDS011;74938;42.658;23.248;2023-12-22T08:43:22;21.95;;;12.23;;
84713;SDS011;74938;42.658;23.248;2023-12-22T08:45:47;20.45;;;11.15;;
84713;SDS011;74938;42.658;23.248;2023-12-22T08:48:13;19.17;;;10.00;;
84713;SDS011;74938;42.658;23.248;2023-12-22T08:50:38;8.95;;;4.68;;
84713;SDS011;74938;42.658;23.248;2023-12-22T08:53:03;13.10;;;5.80;;
84713;SDS011;74938;42.658;23.248;2023-12-22T08:55:29;8.18;;;2.72;;
84713;SDS011;74938;42.658;23.248;2023-12-22T08:57:54;4.53;;;2.20;;
84713;SDS011;74938;42.658;23.248;2023-12-22T09:00:20;3.78;;;1.77;;
84713;SDS011;74938;42.658;23.248;2023-12-22T09:02:45;5.40;;;2.30;;
84713;SDS011;74938;42.658;23.248;2023-12-22T09:05:11;6.82;;;3.45;;
84713;SDS011;74938;42.658;23.248;2023-12-22T09:07:36;8.85;;;3.20;;
84713;SDS011;74938;42.658;23.248;2023-12-22T09:10:02;6.55;;;2.72;;
84713;SDS011;74938;42.658;23.248;2023-12-22T09:12:28;5.22;;;2.30;;
84713;SDS011;74938;42.658;23.248;2023-12-22T09:14:54;13.10;;;6.28;;
84713;SDS011;74938;42.658;23.248;2023-12-22T09:17:19;6.20;;;2.83;;
84713;SDS011;74938;42.658;23.248;2023-12-22T09:19:45;5.45;;;2.15;;
84713;SDS011;74938;42.658;23.248;2023-12-22T09:22:10;4.82;;;2.15;;
84713;SDS011;74938;42.658;23.248;2023-12-22T09:24:35;3.55;;;2.15;;
84713;SDS011;74938;42.658;23.248;2023-12-22T09:27:01;2.15;;;1.17;;
84713;SDS011;74938;42.658;23.248;2023-12-22T09:29:31;2.70;;;1.42;;
84713;SDS011;74938;42.658;23.248;2023-12-22T09:32:00;3.28;;;1.75;;
84713;SDS011;74938;42.658;23.248;2023-12-22T09:34:26;4.18;;;2.25;;
84713;SDS011;74938;42.658;23.248;2023-12-22T09:36:53;2.55;;;1.50;;
84713;SDS011;74938;42.658;23.248;2023-12-22T09:39:19;6.68;;;3.05;;
84713;SDS011;74938;42.658;23.248;2023-12-22T09:41:45;4.63;;;1.77;;
84713;SDS011;74938;42.658;23.248;2023-12-22T09:44:13;3.55;;;2.03;;
84713;SDS011;74938;42.658;23.248;2023-12-22T09:46:43;5.50;;;2.42;;
84713;SDS011;74938;42.658;23.248;2023-12-22T09:49:08;3.75;;;1.90;;
84713;SDS011;74938;42.658;23.248;2023-12-22T09:51:34;4.68;;;2.10;;
84713;SDS011;74938;42.658;23.248;2023-12-22T09:54:01;4.50;;;2.15;;
84713;SDS011;74938;42.658;23.248;2023-12-22T09:56:29;6.00;;;2.25;;
84713;SDS011;74938;42.658;23.248;2023-12-22T09:58:54;5.95;;;2.85;;
84713;SDS011;74938;42.658;23.248;2023-12-22T10:01:21;5.22;;;2.60;;
84713;SDS011;74938;42.658;23.248;2023-12-22T10:03:48;4.50;;;2.53;;
84713;SDS011;74938;42.658;23.248;2023-12-22T10:06:14;9.18;;;4.38;;
84713;SDS011;74938;42.658;23.248;2023-12-22T10:08:42;9.00;;;3.90;;
84713;SDS011;74938;42.658;23.248;2023-12-22T10:11:09;6.63;;;3.33;;
84713;SDS011;74938;42.658;23.248;2023-12-22T10:13:36;8.18;;;3.88;;
84713;SDS011;74938;42.658;23.248;2023-12-22T10:16:05;6.95;;;2.97;;
84713;SDS011;74938;42.658;23.248;2023-12-22T10:18:32;3.97;;;2.15;;
84713;SDS011;74938;42.658;23.248;2023-12-22T10:20:58;5.22;;;2.90;;
84713;SDS011;74938;42.658;23.248;2023-12-22T10:23:23;11.07;;;5.70;;
84713;SDS011;74938;42.658;23.248;2023-12-22T10:25:49;5.30;;;2.30;;
84713;SDS011;74938;42.658;23.248;2023-12-22T10:28:16;5.45;;;2.50;;
84713;SDS011;74938;42.658;23.248;2023-12-22T10:30:42;5.22;;;2.80;;
84713;SDS011;74938;42.658;23.248;2023-12-22T10:33:13;6.15;;;3.00;;
84713;SDS011;74938;42.658;23.248;2023-12-22T10:35:38;5.85;;;3.80;;
84713;SDS011;74938;42.658;23.248;2023-12-22T10:38:06;9.02;;;4.63;;
84713;SDS011;74938;42.658;23.248;2023-12-22T10:40:32;9.75;;;4.30;;
84713;SDS011;74938;42.658;23.248;2023-12-22T10:42:58;9.60;;;4.43;;
84713;SDS011;74938;42.658;23.248;2023-12-22T10:45:24;7.30;;;2.92;;
84713;SDS011;74938;42.658;23.248;2023-12-22T10:47:49;6.40;;;1.65;;
84713;SDS011;74938;42.658;23.248;2023-12-22T10:50:15;4.70;;;2.55;;
84713;SDS011;74938;42.658;23.248;2023-12-22T10:52:48;2.42;;;1.20;;
84713;SDS011;74938;42.658;23.248;2023-12-22T10:55:15;5.70;;;2.55;;
84713;SDS011;74938;42.658;23.248;2023-12-22T10:57:40;5.30;;;2.65;;
84713;SDS011;74938;42.658;23.248;2023-12-22T11:00:06;5.38;;;3.00;;
84713;SDS011;74938;42.658;23.248;2023-12-22T11:02:32;3.40;;;2.22;;
84713;SDS011;74938;42.658;23.248;2023-12-22T11:05:03;3.90;;;2.00;;
84713;SDS011;74938;42.658;23.248;2023-12-22T11:07:30;2.80;;;1.50;;
84713;SDS011;74938;42.658;23.248;2023-12-22T11:09:59;3.42;;;1.60;;
84713;SDS011;74938;42.658;23.248;2023-12-22T11:12:28;4.10;;;2.00;;
84713;SDS011;74938;42.658;23.248;2023-12-22T11:14:58;2.75;;;1.63;;
84713;SDS011;74938;42.658;23.248;2023-12-22T11:17:25;3.95;;;1.95;;
84713;SDS011;74938;42.658;23.248;2023-12-22T11:19:53;4.20;;;1.80;;
84713;SDS011;74938;42.658;23.248;2023-12-22T11:22:19;2.85;;;1.42;;
84713;SDS011;74938;42.658;23.248;2023-12-22T11:24:47;2.15;;;1.20;;
84713;SDS011;74938;42.658;23.248;2023-12-22T11:27:15;1.92;;;1.13;;
84713;SDS011;74938;42.658;23.248;2023-12-22T11:29:42;4.15;;;2.05;;
84713;SDS011;74938;42.658;23.248;2023-12-22T11:32:10;2.63;;;1.50;;
84713;SDS011;74938;42.658;23.248;2023-12-22T11:34:38;2.78;;;1.38;;
84713;SDS011;74938;42.658;23.248;2023-12-22T11:37:06;3.63;;;1.50;;
84713;SDS011;74938;42.658;23.248;2023-12-22T11:39:33;3.47;;;1.90;;
84713;SDS011;74938;42.658;23.248;2023-12-22T11:41:58;4.03;;;1.60;;
84713;SDS011;74938;42.658;23.248;2023-12-22T11:44:25;1.42;;;1.00;;
84713;SDS011;74938;42.658;23.248;2023-12-22T11:47:02;4.35;;;1.75;;
84713;SDS011;74938;42.658;23.248;2023-12-22T11:49:32;3.70;;;1.88;;
84713;SDS011;74938;42.658;23.248;2023-12-22T11:54:57;2.90;;;1.25;;
84713;SDS011;74938;42.658;23.248;2023-12-22T12:02:45;3.08;;;1.42;;
84713;SDS011;74938;42.658;23.248;2023-12-22T12:05:19;2.90;;;1.48;;
84713;SDS011;74938;42.658;23.248;2023-12-22T12:07:45;4.68;;;1.60;;
84713;SDS011;74938;42.658;23.248;2023-12-22T12:13:10;3.00;;;1.45;;
84713;SDS011;74938;42.658;23.248;2023-12-22T12:15:37;2.45;;;1.30;;
84713;SDS011;74938;42.658;23.248;2023-12-22T12:18:04;3.97;;;1.42;;
84713;SDS011;74938;42.658;23.248;2023-12-22T12:20:31;1.70;;;0.90;;
84713;SDS011;74938;42.658;23.248;2023-12-22T12:22:57;2.50;;;1.23;;
84713;SDS011;74938;42.658;23.248;2023-12-22T12:25:23;3.92;;;1.90;;
84713;SDS011;74938;42.658;23.248;2023-12-22T12:30:30;2.05;;;1.15;;
84713;SDS011;74938;42.658;23.248;2023-12-22T12:32:58;0.90;;;0.80;;
84713;SDS011;74938;42.658;23.248;2023-12-22T12:35:30;1.27;;;0.90;;
84713;SDS011;74938;42.658;23.248;2023-12-22T12:37:57;3.65;;;1.23;;
84713;SDS011;74938;42.658;23.248;2023-12-22T12:40:23;3.28;;;1.35;;
84713;SDS011;74938;42.658;23.248;2023-12-22T12:42:50;4.07;;;2.10;;
84713;SDS011;74938;42.658;23.248;2023-12-22T12:45:15;3.95;;;1.80;;
84713;SDS011;74938;42.658;23.248;2023-12-22T12:48:02;5.35;;;2.80;;
84713;SDS011;74938;42.658;23.248;2023-12-22T12:50:28;6.60;;;2.70;;
84713;SDS011;74938;42.658;23.248;2023-12-22T12:52:55;2.97;;;1.50;;
84713;SDS011;74938;42.658;23.248;2023-12-22T12:55:21;2.03;;;1.20;;
84713;SDS011;74938;42.658;23.248;2023-12-22T12:57:48;4.93;;;1.25;;
84713;SDS011;74938;42.658;23.248;2023-12-22T13:00:16;3.50;;;1.55;;
84713;SDS011;74938;42.658;23.248;2023-12-22T13:02:50;7.88;;;2.78;;
84713;SDS011;74938;42.658;23.248;2023-12-22T13:05:22;6.15;;;2.53;;
84713;SDS011;74938;42.658;23.248;2023-12-22T13:07:48;4.80;;;2.17;;
84713;SDS011;74938;42.658;23.248;2023-12-22T13:10:23;3.47;;;1.73;;
84713;SDS011;74938;42.658;23.248;2023-12-22T13:12:50;4.40;;;1.90;;
84713;SDS011;74938;42.658;23.248;2023-12-22T13:15:19;3.08;;;1.42;;
84713;SDS011;74938;42.658;23.248;2023-12-22T13:17:47;2.38;;;1.38;;
84713;SDS011;74938;42.658;23.248;2023-12-22T13:20:13;4.80;;;2.35;;
84713;SDS011;74938;42.658;23.248;2023-12-22T13:22:39;5.40;;;2.47;;
84713;SDS011;74938;42.658;23.248;2023-12-22T13:25:05;6.00;;;3.38;;
84713;SDS011;74938;42.658;23.248;2023-12-22T13:27:30;4.85;;;2.50;;
84713;SDS011;74938;42.658;23.248;2023-12-22T13:29:56;3.00;;;1.92;;
84713;SDS011;74938;42.658;23.248;2023-12-22T13:32:22;3.92;;;1.65;;
84713;SDS011;74938;42.658;23.248;2023-12-22T13:34:55;5.78;;;2.80;;
84713;SDS011;74938;42.658;23.248;2023-12-22T13:37:21;7.00;;;2.55;;
84713;SDS011;74938;42.658;23.248;2023-12-22T13:39:52;6.13;;;2.67;;
84713;SDS011;74938;42.658;23.248;2023-12-22T13:42:18;4.70;;;2.53;;
84713;SDS011;74938;42.658;23.248;2023-12-22T13:44:47;4.65;;;2.35;;
84713;SDS011;74938;42.658;23.248;2023-12-22T13:47:17;3.42;;;1.60;;
84713;SDS011;74938;42.658;23.248;2023-12-22T13:49:43;2.63;;;1.40;;
84713;SDS011;74938;42.658;23.248;2023-12-22T13:52:28;4.20;;;2.35;;
84713;SDS011;74938;42.658;23.248;2023-12-22T13:54:57;3.30;;;1.40;;
84713;SDS011;74938;42.658;23.248;2023-12-22T13:57:26;5.35;;;2.60;;
84713;SDS011;74938;42.658;23.248;2023-12-22T13:59:51;6.38;;;3.60;;
84713;SDS011;74938;42.658;23.248;2023-12-22T14:02:19;4.35;;;2.40;;
84713;SDS011;74938;42.658;23.248;2023-12-22T14:04:45;4.18;;;1.88;;
84713;SDS011;74938;42.658;23.248;2023-12-22T14:07:11;2.85;;;1.70;;
84713;SDS011;74938;42.658;23.248;2023-12-22T14:09:36;4.75;;;1.98;;
84713;SDS011;74938;42.658;23.248;2023-12-22T14:12:03;1.92;;;1.00;;
84713;SDS011;74938;42.658;23.248;2023-12-22T14:14:30;3.00;;;1.38;;
84713;SDS011;74938;42.658;23.248;2023-12-22T14:16:56;4.05;;;1.98;;
84713;SDS011;74938;42.658;23.248;2023-12-22T14:19:22;2.83;;;1.58;;
84713;SDS011;74938;42.658;23.248;2023-12-22T14:21:47;3.97;;;2.03;;
84713;SDS011;74938;42.658;23.248;2023-12-22T14:24:12;5.65;;;2.13;;
84713;SDS011;74938;42.658;23.248;2023-12-22T14:26:53;3.25;;;1.75;;
84713;SDS011;74938;42.658;23.248;2023-12-22T14:31:47;2.45;;;1.55;;
84713;SDS011;74938;42.658;23.248;2023-12-22T14:34:16;3.47;;;1.70;;
84713;SDS011;74938;42.658;23.248;2023-12-22T14:36:42;5.97;;;2.40;;
84713;SDS011;74938;42.658;23.248;2023-12-22T14:39:09;6.35;;;1.80;;
84713;SDS011;74938;42.658;23.248;2023-12-22T14:41:36;4.07;;;2.08;;